.
WxDataArchive / Data Records for 2015-07-06
2015-07-05 July 2015 2015-07-07

Data Records for Monday, 06 July 2015

Time	Temp	Chill	HIndex	Humid	Dewpt	 Wind 	HiWind	WindDir	Rain 	Barom
-----	----	-----	------	-----	-----	------	------	-------	-----	-----
00:00	66.0	66.0	66.0	86	61.7	0	0	---	0.00	30.022 
00:05	66.0	66.0	66.0	87	62.0	0	0	---	0.00	30.022 
00:10	65.6	65.6	65.6	87	61.6	0	0	---	0.00	30.022 
00:15	65.5	65.5	65.5	88	61.8	0	0	---	0.00	30.018 
00:20	65.5	65.5	65.5	88	61.8	0	0	---	0.00	30.018 
00:25	65.3	65.3	65.3	88	61.6	0	0	---	0.00	30.018 
00:30	65.2	65.2	65.2	89	61.9	0	1	90	0.00	30.013 
00:35	65.2	65.2	65.2	89	61.9	0	0	---	0.00	30.013 
00:40	65.0	65.0	65.0	89	61.7	0	0	---	0.00	30.013 
00:45	65.0	65.0	65.0	89	61.7	0	0	---	0.00	30.013 
00:50	64.8	64.8	64.8	89	61.5	0	0	---	0.00	30.013 
00:55	64.7	64.7	64.7	90	61.7	0	0	---	0.00	30.013 
01:00	64.5	64.5	64.5	90	61.5	0	0	---	0.00	30.013 
01:05	64.5	64.5	64.5	90	61.5	0	0	---	0.00	30.013 
01:10	64.7	64.7	64.7	90	61.7	0	0	---	0.00	30.013 
01:15	64.7	64.7	64.7	90	61.7	0	0	---	0.00	30.009 
01:20	64.5	64.5	64.5	90	61.5	0	0	---	0.00	30.009 
01:25	64.5	64.5	64.5	90	61.5	0	0	---	0.00	30.009 
01:30	64.3	64.3	64.3	90	61.3	0	0	---	0.00	30.007 
01:35	64.2	64.2	64.2	90	61.2	0	0	---	0.00	30.007 
01:40	64.0	64.0	64.0	90	61.0	0	0	---	0.00	30.007 
01:45	63.9	63.9	63.9	90	60.9	0	0	---	0.00	29.999 
01:50	63.7	63.7	63.7	90	60.7	0	0	---	0.00	29.999 
01:55	63.5	63.5	63.5	90	60.5	0	0	---	0.00	29.999 
02:00	63.4	63.4	63.4	90	60.4	0	0	---	0.00	29.999 
02:05	63.4	63.4	63.4	91	60.7	0	0	---	0.00	29.999 
02:10	63.2	63.2	63.2	91	60.5	0	0	---	0.00	29.999 
02:15	63.1	63.1	63.1	91	60.4	0	0	---	0.00	30.002 
02:20	62.9	62.9	62.9	91	60.2	0	0	---	0.00	30.002 
02:25	62.9	62.9	62.9	91	60.2	0	0	---	0.00	30.002 
02:30	62.7	62.7	62.7	91	60.0	0	0	---	0.00	30.002 
02:35	62.6	62.6	62.6	91	59.9	0	0	---	0.00	30.002 
02:40	62.4	62.4	62.4	91	59.7	0	0	---	0.00	30.002 
02:45	62.4	62.4	62.4	92	60.0	0	0	---	0.00	30.003 
02:50	62.4	62.4	62.4	92	60.0	0	0	---	0.00	30.003 
02:55	62.3	62.3	62.3	92	59.9	0	0	---	0.00	30.003 
03:00	62.1	62.1	62.1	92	59.7	0	0	---	0.00	29.999 
03:05	62.0	62.0	62.0	92	59.6	0	0	---	0.00	29.999 
03:10	62.0	62.0	62.0	92	59.6	0	0	---	0.00	29.999 
03:15	61.8	61.8	61.8	92	59.4	0	0	---	0.00	29.997 
03:20	61.8	61.8	61.8	92	59.4	0	0	---	0.00	29.997 
03:25	61.8	61.8	61.8	92	59.4	0	0	---	0.00	29.997 
03:30	61.6	61.6	61.6	92	59.2	0	0	---	0.00	29.998 
03:35	61.5	61.5	61.5	92	59.2	0	0	---	0.00	29.998 
03:40	61.3	61.3	61.3	92	59.0	0	0	---	0.00	29.998 
03:45	61.3	61.3	61.3	93	59.3	0	0	---	0.00	30.004 
03:50	61.3	61.3	61.3	93	59.3	0	0	---	0.00	30.004 
03:55	61.2	61.2	61.2	93	59.2	0	0	---	0.00	30.004 
04:00	61.2	61.2	61.2	93	59.2	0	0	---	0.00	30.003 
04:05	61.0	61.0	61.0	93	59.0	0	0	---	0.00	30.003 
04:10	61.0	61.0	61.0	93	59.0	0	0	---	0.00	30.003 
04:15	60.9	60.9	60.9	93	58.9	0	0	---	0.00	30.004 
04:20	60.9	60.9	60.9	93	58.9	0	0	---	0.00	30.004 
04:25	60.9	60.9	60.9	93	58.9	0	0	---	0.00	30.004 
04:30	60.7	60.7	60.7	93	58.7	0	0	---	0.00	30.005 
04:35	60.7	60.7	60.7	93	58.7	0	0	---	0.00	30.005 
04:40	60.7	60.7	60.7	93	58.7	0	0	---	0.00	30.005 
04:45	60.5	60.5	60.5	93	58.5	0	0	---	0.00	30.015 
04:50	60.5	60.5	60.5	93	58.5	0	0	---	0.00	30.015 
04:55	60.4	60.4	60.4	93	58.4	0	0	---	0.00	30.015 
05:00	60.2	60.2	60.2	93	58.2	0	0	---	0.00	30.018 
05:05	60.1	60.1	60.1	93	58.1	0	0	---	0.00	30.018 
05:10	60.1	60.1	60.1	93	58.1	0	0	---	0.00	30.018 
05:15	59.9	59.9	59.9	93	57.9	0	0	---	0.00	30.023 
05:20	59.9	59.9	59.9	94	58.2	0	0	---	0.00	30.023 
05:25	59.8	59.8	59.8	94	58.1	0	0	---	0.00	30.023 
05:30	59.8	59.8	59.8	94	58.1	0	0	---	0.00	30.025 
05:35	59.6	59.6	59.6	94	57.9	0	0	---	0.00	30.025 
05:40	59.6	59.6	59.6	94	57.9	0	0	---	0.00	30.025 
05:45	59.6	59.6	59.6	94	57.9	0	0	---	0.00	30.025 
05:50	59.5	59.5	59.5	94	57.8	0	0	---	0.00	30.025 
05:55	59.5	59.5	59.5	94	57.8	0	0	---	0.00	30.025 
06:00	59.3	59.3	59.3	94	57.6	0	0	---	0.00	30.023 
06:05	59.3	59.3	59.3	94	57.6	0	0	---	0.00	30.023 
06:10	59.2	59.2	59.2	94	57.5	0	0	---	0.00	30.023 
06:15	59.2	59.2	59.2	94	57.5	0	0	---	0.00	30.029 
06:20	59.2	59.2	59.2	94	57.5	0	0	---	0.00	30.029 
06:25	59.0	59.0	59.0	94	57.3	0	0	---	0.00	30.029 
06:30	59.0	59.0	59.0	94	57.3	0	0	---	0.00	30.022 
06:35	59.0	59.0	59.0	94	57.3	0	0	---	0.00	30.022 
06:40	59.2	59.2	59.2	94	57.5	0	0	---	0.00	30.022 
06:45	59.2	59.2	59.2	94	57.5	0	0	---	0.00	30.020 
06:50	59.2	59.2	59.2	94	57.5	0	0	---	0.00	30.020 
06:55	59.3	59.3	59.3	95	57.9	0	0	---	0.00	30.020 
07:00	59.6	59.6	59.6	95	58.2	0	0	---	0.00	30.027 
07:05	59.6	59.6	59.6	95	58.2	0	0	---	0.00	30.027 
07:10	59.8	59.8	59.8	95	58.4	0	0	---	0.00	30.027 
07:15	60.1	60.1	60.1	95	58.7	0	0	---	0.00	30.026 
07:20	60.4	60.4	60.4	95	59.0	0	0	---	0.00	30.026 
07:25	60.7	60.7	60.7	95	59.3	0	0	---	0.00	30.026 
07:30	61.0	61.0	61.0	95	59.6	0	0	---	0.00	30.035 
07:35	61.3	61.3	61.3	95	59.9	0	0	---	0.00	30.035 
07:40	61.8	61.8	61.8	95	60.3	0	0	---	0.00	30.035 
07:45	62.1	62.1	62.1	95	60.6	0	0	---	0.00	30.032 
07:50	62.4	62.4	62.4	95	60.9	0	0	---	0.00	30.032 
07:55	62.9	62.9	62.9	95	61.4	0	0	---	0.00	30.032 
08:00	63.4	63.4	63.4	95	61.9	0	0	---	0.00	30.030 
08:05	63.9	63.9	63.9	94	62.1	0	0	---	0.00	30.030 
08:10	64.5	64.5	64.5	94	62.7	0	1	45	0.00	30.030 
08:15	64.8	64.8	64.8	93	62.7	0	0	---	0.00	30.033 
08:20	65.5	65.5	65.5	93	63.4	0	0	---	0.00	30.033 
08:25	66.1	66.1	66.1	92	63.7	0	0	---	0.00	30.033 
08:30	66.6	66.6	66.6	91	63.9	0	0	---	0.00	30.031 
08:35	67.3	67.3	67.3	90	64.3	0	0	---	0.00	30.031 
08:40	67.3	67.3	67.3	89	63.9	0	0	---	0.00	30.031 
08:45	67.8	67.8	67.8	88	64.1	0	0	---	0.00	30.027 
08:50	68.8	68.8	68.8	87	64.8	0	1	45	0.00	30.027 
08:55	69.6	69.6	69.6	84	64.5	0	0	---	0.00	30.027 
09:00	70.4	70.4	70.4	81	64.3	0	1	45	0.00	30.019 
09:05	71.1	71.1	71.1	79	64.2	0	1	45	0.00	30.019 
09:10	72.0	72.0	72.0	78	64.8	0	0	---	0.00	30.019 
09:15	72.7	72.7	72.7	76	64.7	0	0	---	0.00	30.020 
09:20	73.2	73.2	73.2	75	64.8	0	1	45	0.00	30.020 
09:25	73.2	73.2	73.2	74	64.4	0	1	45	0.00	30.020 
09:30	73.0	73.0	73.0	73	63.8	0	1	45	0.00	30.030 
09:35	73.5	73.5	73.5	74	64.7	0	1	45	0.00	30.030 
09:40	73.9	73.9	73.9	73	64.7	0	1	45	0.00	30.030 
09:45	74.4	74.4	74.4	74	65.6	0	1	45	0.00	30.023 
09:50	74.7	74.7	74.7	70	64.2	0	2	45	0.00	30.023 
09:55	75.1	75.1	76.8	70	64.6	0	1	45	0.00	30.023 
10:00	75.3	75.3	77.0	69	64.4	0	1	45	0.00	30.019 
10:05	75.8	75.8	77.4	70	65.3	0	1	45	0.00	30.019 
10:10	76.3	76.3	78.0	68	64.9	0	1	45	0.00	30.019 
10:15	77.0	77.0	78.8	67	65.2	0	0	---	0.00	30.022 
10:20	77.9	77.9	79.7	64	64.7	0	1	45	0.00	30.022 
10:25	78.3	78.3	80.1	62	64.2	0	2	45	0.00	30.022 
10:30	78.5	78.5	80.4	65	65.7	0	1	45	0.00	30.012 
10:35	78.5	78.5	80.3	62	64.4	0	1	45	0.00	30.012 
10:40	78.3	78.3	80.1	63	64.6	0	1	45	0.00	30.012 
10:45	77.9	77.9	79.7	64	64.7	0	2	45	0.00	30.012 
10:50	78.1	78.1	80.0	66	65.8	0	2	22	0.00	30.012 
10:55	78.3	78.3	80.2	65	65.5	0	2	22	0.00	30.012 
11:00	78.3	78.3	80.1	62	64.2	1	2	292	0.00	30.013 
11:05	78.1	78.1	79.9	63	64.5	0	2	292	0.00	30.013 
11:10	78.1	78.1	79.8	61	63.5	1	3	292	0.00	30.013 
11:15	78.1	78.1	79.9	63	64.5	0	2	292	0.00	30.011 
11:20	78.8	78.8	80.9	67	66.9	0	1	292	0.00	30.011 
11:25	79.6	79.6	81.6	63	65.9	0	1	292	0.00	30.011 
11:30	80.1	80.1	81.9	60	64.9	0	2	292	0.00	30.001 
11:35	80.5	80.5	82.4	60	65.3	0	1	315	0.00	30.001 
11:40	80.3	80.3	82.1	59	64.6	0	3	338	0.00	30.001 
11:45	80.7	80.7	82.7	60	65.5	0	2	68	0.00	30.002 
11:50	81.1	81.1	82.9	58	64.9	0	3	68	0.00	30.002 
11:55	81.2	81.2	83.0	58	65.0	0	2	0	0.00	30.002 
12:00	81.2	81.2	83.2	59	65.5	0	1	0	0.00	29.997 
12:05	81.6	81.6	83.4	57	64.9	1	3	22	0.00	29.997 
12:10	82.2	82.2	84.3	58	65.9	0	2	22	0.00	29.997 
12:15	82.2	82.2	84.2	57	65.4	1	3	68	0.00	29.996 
12:20	82.2	82.2	84.3	58	65.9	0	2	68	0.00	29.996 
12:25	82.2	82.2	84.2	57	65.4	0	2	68	0.00	29.996 
12:30	82.4	82.4	84.4	57	65.6	0	2	68	0.00	29.999 
12:35	82.8	82.8	85.0	57	66.0	0	2	68	0.00	29.999 
12:40	82.8	82.8	85.2	58	66.5	0	2	68	0.00	29.999 
12:45	82.6	82.6	84.7	57	65.8	0	2	68	0.00	29.996 
12:50	82.6	82.6	84.7	57	65.8	1	4	112	0.00	29.996 
12:55	82.6	82.6	84.9	58	66.3	1	3	112	0.00	29.996 
13:00	82.0	82.0	83.9	57	65.2	1	3	292	0.00	29.997 
13:05	81.8	81.8	83.8	58	65.6	1	2	292	0.00	29.997 
13:10	81.8	81.8	84.0	59	66.0	1	3	292	0.00	29.997 
13:15	81.4	81.4	83.3	58	65.2	1	3	292	0.00	30.008 
13:20	81.2	81.2	83.2	59	65.5	1	3	292	0.00	30.008 
13:25	81.8	81.8	83.8	58	65.6	1	4	90	0.00	30.008 
13:30	82.2	82.2	84.5	59	66.4	0	1	90	0.00	30.008 
13:35	82.4	82.4	84.4	57	65.6	0	2	90	0.00	30.008 
13:40	82.6	82.6	84.7	57	65.8	0	1	90	0.00	30.008 
13:45	82.6	82.6	84.9	58	66.3	0	3	90	0.00	29.997 
13:50	82.6	82.6	84.9	58	66.3	0	3	315	0.00	29.997 
13:55	82.8	82.8	84.6	55	65.0	0	2	315	0.00	29.997 
14:00	83.0	83.0	85.3	57	66.2	1	2	315	0.00	29.995 
14:05	83.4	83.4	85.6	56	66.0	0	2	315	0.00	29.995 
14:10	83.8	83.8	85.7	54	65.3	0	2	315	0.00	29.995 
14:15	84.0	84.0	85.8	53	65.0	0	2	338	0.00	29.982 
14:20	84.0	84.0	86.5	56	66.6	0	3	338	0.00	29.982 
14:25	84.1	84.1	86.4	55	66.2	0	2	315	0.00	29.982 
14:30	84.3	84.3	87.0	56	66.9	1	3	45	0.00	29.969 
14:35	84.7	84.7	86.8	53	65.6	0	2	248	0.00	29.969 
14:40	84.9	84.9	87.3	54	66.4	0	2	248	0.00	29.969 
14:45	84.9	84.9	86.8	52	65.3	1	5	90	0.00	29.966 
14:50	85.1	85.1	87.9	55	67.1	0	3	90	0.00	29.966 
14:55	84.9	84.9	86.8	52	65.3	1	3	90	0.00	29.966 
15:00	84.5	84.5	86.7	54	66.0	1	3	90	0.00	29.954 
15:05	84.5	84.5	86.5	53	65.5	0	2	90	0.00	29.954 
15:10	84.7	84.7	87.0	54	66.2	1	3	90	0.00	29.954 
15:15	84.9	84.9	86.6	51	64.7	1	2	90	0.00	29.945 
15:20	84.9	84.9	87.1	53	65.8	1	3	90	0.00	29.945 
15:25	84.9	84.9	87.3	54	66.4	0	3	45	0.00	29.945 
15:30	84.9	84.9	86.8	52	65.3	0	3	68	0.00	29.938 
15:35	85.1	85.1	87.7	54	66.6	0	1	68	0.00	29.938 
15:40	85.3	85.3	87.7	53	66.2	0	2	0	0.00	29.938 
15:45	85.5	85.5	87.7	52	65.8	0	2	0	0.00	29.934 
15:50	85.5	85.5	88.0	53	66.4	0	3	0	0.00	29.934 
15:55	85.3	85.3	86.9	50	64.5	1	3	0	0.00	29.934 
16:00	85.5	85.5	87.2	50	64.7	1	3	68	0.00	29.931 
16:05	85.7	85.7	88.0	52	66.0	0	1	90	0.00	29.931 
16:10	85.9	85.9	87.7	50	65.1	1	4	90	0.00	29.931 
16:15	85.5	85.5	86.9	49	64.1	1	3	90	0.00	29.933 
16:20	85.1	85.1	86.6	50	64.3	0	3	292	0.00	29.933 
16:25	84.9	84.9	86.3	50	64.2	0	4	112	0.00	29.933 
16:30	84.9	84.9	86.6	51	64.7	0	2	135	0.00	29.932 
16:35	85.1	85.1	86.9	51	64.9	0	1	135	0.00	29.932 
16:40	84.9	84.9	86.3	50	64.2	0	3	135	0.00	29.932 
16:45	85.1	85.1	87.4	53	66.0	0	4	292	0.00	29.935 
16:50	85.5	85.5	87.4	51	65.3	0	3	90	0.00	29.935 
16:55	85.5	85.5	86.9	49	64.1	0	5	22	0.00	29.935 
17:00	85.3	85.3	87.1	51	65.1	1	6	90	0.00	29.930 
17:05	85.1	85.1	86.9	51	64.9	1	4	90	0.00	29.930 
17:10	85.1	85.1	86.9	51	64.9	0	5	90	0.00	29.930 
17:15	85.1	85.1	86.9	51	64.9	1	3	90	0.00	29.916 
17:20	85.5	85.5	87.4	51	65.3	0	1	90	0.00	29.916 
17:25	85.5	85.5	87.2	50	64.7	0	1	90	0.00	29.916 
17:30	85.5	85.5	87.2	50	64.7	0	2	90	0.00	29.910 
17:35	85.1	85.1	86.6	50	64.3	1	4	292	0.00	29.910 
17:40	84.5	84.5	86.0	51	64.4	0	3	292	0.00	29.910 
17:45	84.3	84.3	86.0	52	64.7	0	1	292	0.00	29.913 
17:50	84.3	84.3	86.0	52	64.7	0	3	292	0.00	29.913 
17:55	84.1	84.1	85.5	51	64.0	0	2	292	0.00	29.913 
18:00	84.0	84.0	85.3	51	63.9	0	2	292	0.00	29.917 
18:05	84.0	84.0	85.1	50	63.3	0	1	292	0.00	29.917 
18:10	84.0	84.0	85.3	51	63.9	0	2	292	0.00	29.917 
18:15	83.6	83.6	84.8	51	63.5	0	2	292	0.00	29.908 
18:20	83.4	83.4	84.8	52	63.9	0	2	292	0.00	29.908 
18:25	83.2	83.2	84.5	52	63.7	0	2	292	0.00	29.908 
18:30	83.0	83.0	84.3	52	63.5	0	3	22	0.00	29.911 
18:35	83.0	83.0	84.3	52	63.5	0	1	22	0.00	29.911 
18:40	82.8	82.8	84.2	53	63.9	0	1	22	0.00	29.911 
18:45	82.8	82.8	84.0	52	63.3	0	2	22	0.00	29.908 
18:50	82.8	82.8	84.2	53	63.9	0	2	22	0.00	29.908 
18:55	83.0	83.0	84.3	52	63.5	0	3	0	0.00	29.908 
19:00	83.2	83.2	84.9	54	64.8	0	1	292	0.00	29.902 
19:05	83.2	83.2	84.5	52	63.7	0	2	292	0.00	29.902 
19:10	83.2	83.2	84.7	53	64.3	0	4	292	0.00	29.902 
19:15	83.0	83.0	84.5	53	64.1	0	3	112	0.00	29.898 
19:20	83.0	83.0	84.7	54	64.6	0	2	248	0.00	29.898 
19:25	82.8	82.8	84.4	54	64.4	0	1	248	0.00	29.898 
19:30	82.6	82.6	84.1	54	64.2	0	3	248	0.00	29.901 
19:35	82.6	82.6	84.1	54	64.2	0	1	248	0.00	29.901 
19:40	82.4	82.4	83.9	54	64.1	1	3	248	0.00	29.901 
19:45	82.4	82.4	83.9	54	64.1	0	2	315	0.00	29.894 
19:50	82.2	82.2	83.8	55	64.4	0	2	315	0.00	29.894 
19:55	82.0	82.0	83.6	55	64.2	0	3	315	0.00	29.894 
20:00	81.8	81.8	83.6	57	65.0	0	2	315	0.00	29.895 
20:05	81.6	81.6	83.2	56	64.4	0	3	315	0.00	29.895 
20:10	81.4	81.4	83.1	57	64.7	0	3	22	0.00	29.895 
20:15	81.2	81.2	83.0	58	65.0	0	1	22	0.00	29.891 
20:20	81.1	81.1	82.9	58	64.9	0	1	22	0.00	29.891 
20:25	81.1	81.1	82.9	58	64.9	0	1	22	0.00	29.891 
20:30	80.9	80.9	82.7	58	64.7	0	1	22	0.00	29.885 
20:35	80.7	80.7	82.4	58	64.5	0	1	22	0.00	29.885 
20:40	80.5	80.5	82.3	59	64.8	0	0	---	0.00	29.885 
20:45	80.3	80.3	82.1	59	64.6	0	1	22	0.00	29.882 
20:50	80.1	80.1	81.9	60	64.9	0	1	22	0.00	29.882 
20:55	79.9	79.9	81.8	61	65.2	0	1	22	0.00	29.882 
21:00	79.8	79.8	81.7	61	65.1	0	1	22	0.00	29.872 
21:05	79.8	79.8	81.8	62	65.6	0	1	22	0.00	29.872 
21:10	79.6	79.6	81.5	62	65.4	0	2	22	0.00	29.872 
21:15	79.4	79.4	81.3	62	65.2	0	1	22	0.00	29.865 
21:20	79.4	79.4	81.3	62	65.2	0	1	22	0.00	29.865 
21:25	79.2	79.2	81.1	63	65.5	0	0	---	0.00	29.865 
21:30	79.0	79.0	81.0	64	65.8	0	1	22	0.00	29.868 
21:35	78.6	78.6	80.5	64	65.4	0	1	22	0.00	29.868 
21:40	78.5	78.5	80.4	65	65.7	0	0	---	0.00	29.868 
21:45	78.3	78.3	80.2	65	65.5	0	2	22	0.00	29.870 
21:50	78.1	78.1	80.0	65	65.4	0	0	---	0.00	29.870 
21:55	77.9	77.9	79.7	65	65.2	0	0	---	0.00	29.870 
22:00	77.9	77.9	79.8	66	65.6	0	1	22	0.00	29.881 
22:05	77.7	77.7	79.6	66	65.4	0	0	---	0.00	29.881 
22:10	77.7	77.7	79.6	66	65.4	0	1	22	0.00	29.881 
22:15	77.6	77.6	79.5	67	65.8	0	0	---	0.00	29.889 
22:20	77.4	77.4	79.2	67	65.6	0	0	---	0.00	29.889 
22:25	77.4	77.4	79.2	67	65.6	0	1	22	0.00	29.889 
22:30	77.4	77.4	79.2	67	65.6	0	1	22	0.00	29.895 
22:35	77.2	77.2	79.0	68	65.8	0	0	---	0.00	29.895 
22:40	77.2	77.2	79.0	68	65.8	0	1	22	0.00	29.895 
22:45	77.2	77.2	79.0	68	65.8	0	1	22	0.00	29.889 
22:50	77.2	77.2	79.0	68	65.8	0	1	22	0.00	29.889 
22:55	77.2	77.2	79.0	68	65.8	0	0	---	0.00	29.889 
23:00	77.0	77.0	78.8	69	66.0	0	1	22	0.00	29.885 
23:05	77.0	77.0	78.8	69	66.0	0	2	22	0.00	29.885 
23:10	77.2	77.2	79.0	69	66.2	0	2	22	0.00	29.885 
23:15	77.2	77.2	79.0	69	66.2	0	1	22	0.00	29.879 
23:20	77.2	77.2	79.0	69	66.2	0	1	22	0.00	29.879 
23:25	77.0	77.0	78.8	69	66.0	0	1	22	0.00	29.879 
23:30	77.0	77.0	78.8	69	66.0	0	1	22	0.00	29.878 
23:35	77.0	77.0	78.8	70	66.4	0	1	22	0.00	29.878 
23:40	76.8	76.8	78.5	70	66.3	0	1	0	0.00	29.878 
23:45	76.8	76.8	78.5	71	66.7	0	1	0	0.00	29.877 
23:50	76.7	76.7	78.4	71	66.6	0	1	0	0.00	29.877 
23:55	76.7	76.7	78.4	72	67.0	0	0	---	0.00	29.877 

CoCoRaHS
IN-AL-39
A2 Web Hosting
Creative Commons License
GoDaddy
search engine by freefind advanced

loaded 2018-11-13 01:31:38 • last modified 2010-11-18 10:43:29
Privacy PolicyDisclaimer
• wx.awcolley.com is powered by PmWiki v.2002016 •
• all content (unless otherwise noted) © 2018 A W Colley